Portada
METAR-TAF:

METAR-TAF

Aeroports :

Nain, Terranova i Labrador, Canadà

latitud: 56-33N, longitud: 061-41W, altitud: 6 m

Observació

L'informe es va fer fa 49 minuts, a les 11:00 UTC
Vent 4 kt del Oest/Nord-Oest
Temperatura -28°C
Humitat 62%
Pressió 1030 hPa
Visibilitat: 24.1 km
Cel clar

METAR: CYDP 271100Z 29004KT 15SM SKC M28/M33 A3041 RMK SLP299

Hora: 07:49 (11:49 UTC)

Pronòstic

L'informe es va fer fa 1 hora i 11 minuts, a les 10:38 UTC
Pronòstic vàlid del 27 a les 11 UTC al 27 a les 23 UTC
Vent 6 kt del Oest/Nord-Oest
Visibilitat: 10 km
Cel clar
Temporalment
l' 27 a les 11 UTC al 27 a les 23 UTC
Visibilitat: 8.0 km
cristalls de gel
Evolucionant progressivament
l' 27 a les 18 UTC al 27 a les 20 UTC
Vent 3 kt amb direcció variable

TAF: CYDP 271038Z 2711/2723 30006KT P6SM SKC TEMPO 2711/2723 5SM IC BECMG 2718/2720 VRB03KT RMK NXT FCST BY 271400Z

Observacions i pronòstics meteorològics de més de 4000 aeroports (METAR i TAF).

Les estacions disponibles són els punts grocs i vermells al mapa.

Posi el ratolí al punt desitjat per veure el nom de l'estació.

Feu clic per veure les observacions i els pronòstics meteorològics.

Per canviar el mapa: feu clic els botons verds amb una creu de color negre per apropar; al botó verd amb un guió per allunyar la imatge; o en les fletxes verdes per a mapes adjacents.


METAR-TAF: